San Diego, California
Traffic Map
Current Weather Conditions
San Diego, California
Few Clouds
Few Clouds
23°
Feels Like: 23°
Wind Chill: 23° Ceiling: Unl
Heat Index: 23° Visibility: 10mi
Dew Point: 17° Wind: 9mph
Humidity: 66% Direction: 200° (SSW)
Pressure: 29.86in Gusts: 0mph
Raw Report DataKSAN 011851Z 20008KT 10SM FEW015 23/17 A2986 RMK AO2 SLP109 T02330167 $
Traffic Incident Summary
Active as of:
Severity:
Category:
InformationThere was an issue retrieving the traffic information for this location. Please try a different location or try again shortly.
Advertisements
Track Severe Weather on mobile